Time;durP1;ratioP1;P1;durP2;ratioP2;P2;SDS_P1;SDS_P2;PMS_P1;PMS_P2;Temp;Humidity;BMP_temperature;BMP_pressure;BME280_temperature;BME280_humidity;BME280_pressure;Samples;Min_cycle;Max_cycle;Signal;HPM_P1;HPM_P2
2021/04/30 00:01:56;;;;;;;10.38;3.40;;;17.90;99.90;;;;;;5113660;28;20055;-51
2021/04/30 00:04:22;;;;;;;9.13;3.55;;;17.70;99.90;;;;;;5113720;28;20530;-50
2021/04/30 00:06:48;;;;;;;10.48;4.75;;;17.50;99.90;;;;;;5113823;28;20613;-50
2021/04/30 00:09:14;;;;;;;9.65;5.35;;;17.40;99.90;;;;;;5113990;28;20110;-50
2021/04/30 00:11:40;;;;;;;8.65;5.00;;;17.40;99.90;;;;;;5111767;28;20044;-51
2021/04/30 00:14:05;;;;;;;15.75;8.18;;;17.40;99.90;;;;;;5128799;28;20047;-51
2021/04/30 00:16:31;;;;;;;14.63;7.95;;;17.40;99.90;;;;;;5111493;28;20501;-51
2021/04/30 00:18:57;;;;;;;19.45;10.35;;;17.30;99.90;;;;;;5111777;28;20031;-50
2021/04/30 00:21:23;;;;;;;23.98;12.90;;;;;;;;;;5128677;28;20058;-51
2021/04/30 00:23:52;;;;;;;19.00;11.52;;;17.00;99.90;;;;;;5113419;28;20058;-51
2021/04/30 00:26:18;;;;;;;24.13;11.60;;;17.00;99.90;;;;;;5117873;28;20031;-48
2021/04/30 00:28:44;;;;;;;16.45;10.38;;;17.10;99.90;;;;;;5115911;28;20043;-51
2021/04/30 00:31:10;;;;;;;15.43;9.60;;;17.10;99.90;;;;;;5117514;28;20582;-50
2021/04/30 00:33:35;;;;;;;19.10;11.10;;;17.10;99.90;;;;;;5115543;28;20077;-50
2021/04/30 00:36:02;;;;;;;18.65;11.10;;;17.00;99.90;;;;;;5081506;28;20114;-50
2021/04/30 00:38:28;;;;;;;23.67;13.35;;;17.10;99.90;;;;;;5117536;28;20020;-50
2021/04/30 00:40:53;;;;;;;39.00;24.10;;;17.10;99.90;;;;;;5115492;28;20046;-50
2021/04/30 00:43:19;;;;;;;20.27;13.13;;;17.20;99.90;;;;;;5101965;28;20173;-50
2021/04/30 00:45:45;;;;;;;17.30;10.68;;;17.10;99.90;;;;;;5097345;28;20051;-51
2021/04/30 00:48:11;;;;;;;15.63;9.38;;;16.80;99.90;;;;;;5094677;28;20055;-50
2021/04/30 00:50:38;;;;;;;17.73;10.68;;;16.80;99.90;;;;;;5096730;28;20474;-50
2021/04/30 00:53:04;;;;;;;14.23;8.68;;;16.90;99.90;;;;;;5111790;28;20033;-51
2021/04/30 00:55:30;;;;;;;15.73;8.23;;;16.60;99.90;;;;;;5096670;28;20027;-51
2021/04/30 00:57:57;;;;;;;12.52;8.02;;;16.50;99.90;;;;;;5097040;28;20024;-50
2021/04/30 01:00:25;;;;;;;18.30;8.85;;;16.30;99.90;;;;;;5111733;28;20032;-51
2021/04/30 01:02:51;;;;;;;15.75;9.15;;;16.10;99.90;;;;;;5096821;28;20028;-50
2021/04/30 01:05:18;;;;;;;13.95;8.20;;;16.10;99.90;;;;;;5097077;28;20060;-51
2021/04/30 01:07:44;;;;;;;16.73;9.43;;;16.10;99.90;;;;;;5111343;28;20040;-50
2021/04/30 01:10:11;;;;;;;14.13;9.10;;;16.10;99.90;;;;;;5111559;28;20626;-50
2021/04/30 01:12:37;;;;;;;16.98;9.52;;;16.00;99.90;;;;;;5094170;28;20039;-51
2021/04/30 01:15:03;;;;;;;16.77;10.50;;;15.90;99.90;;;;;;5111662;28;20477;-50
2021/04/30 01:17:29;;;;;;;18.17;11.00;;;16.00;99.90;;;;;;5096455;28;20093;-51
2021/04/30 01:19:58;;;;;;;15.45;8.80;;;16.10;99.90;;;;;;5094491;28;20510;-50
2021/04/30 01:22:33;;;;;;;15.23;8.45;;;16.00;99.90;;;;;;5096036;28;20039;-51
2021/04/30 01:24:59;;;;;;;11.63;8.27;;;16.00;99.90;;;;;;5096463;28;20337;-51
2021/04/30 01:27:25;;;;;;;18.10;8.45;;;16.00;99.90;;;;;;5096328;28;20047;-50
2021/04/30 01:29:51;;;;;;;11.45;7.05;;;16.10;99.90;;;;;;5096289;28;20103;-50
2021/04/30 01:32:16;;;;;;;13.63;7.38;;;16.00;99.90;;;;;;5095960;28;20383;-51
2021/04/30 01:34:42;;;;;;;14.50;7.57;;;16.00;99.90;;;;;;5060369;28;20121;-51
2021/04/30 01:37:08;;;;;;;13.43;6.97;;;16.00;99.90;;;;;;5060450;28;20495;-50
2021/04/30 01:39:34;;;;;;;12.15;6.53;;;16.00;99.90;;;;;;5060117;28;20490;-51
2021/04/30 01:42:03;;;;;;;10.23;6.10;;;15.90;99.90;;;;;;5096425;28;20035;-51
2021/04/30 01:44:28;;;;;;;13.07;6.43;;;15.80;99.90;;;;;;5094075;28;20538;-50
2021/04/30 01:46:54;;;;;;;10.63;5.85;;;15.70;99.90;;;;;;5107215;28;20123;-51
2021/04/30 01:49:20;;;;;;;12.00;5.65;;;15.70;99.90;;;;;;5116372;28;20024;-50
2021/04/30 01:51:46;;;;;;;9.18;5.45;;;15.70;99.90;;;;;;5114139;28;20031;-51
2021/04/30 01:54:11;;;;;;;7.55;4.85;;;15.70;99.90;;;;;;5116625;27;20031;-50
2021/04/30 01:56:37;;;;;;;8.32;4.70;;;15.70;99.90;;;;;;5116376;28;20027;-50
2021/04/30 01:59:03;;;;;;;11.68;5.82;;;15.60;99.90;;;;;;5114226;28;20028;-51
2021/04/30 02:01:29;;;;;;;7.85;4.97;;;15.60;99.90;;;;;;5115863;27;20027;-50
2021/04/30 02:04:01;;;;;;;8.57;4.50;;;15.60;99.90;;;;;;5115886;27;20454;-50
2021/04/30 02:06:26;;;;;;;6.88;4.15;;;15.60;99.90;;;;;;5113929;28;20035;-51
2021/04/30 02:08:56;;;;;;;6.63;3.92;;;15.60;99.90;;;;;;5115726;28;20371;-50
2021/04/30 02:11:22;;;;;;;7.82;4.00;;;15.60;99.90;;;;;;5098187;28;20375;-50
2021/04/30 02:13:48;;;;;;;8.15;4.22;;;15.70;99.90;;;;;;5094862;28;20051;-50
2021/04/30 02:16:14;;;;;;;7.75;3.90;;;15.70;99.90;;;;;;5095519;28;20035;-51
2021/04/30 02:18:39;;;;;;;8.75;4.32;;;15.80;99.90;;;;;;5095492;28;20040;-50
2021/04/30 02:21:08;;;;;;;8.75;4.60;;;15.80;99.90;;;;;;5095017;28;20093;-51
2021/04/30 02:23:34;;;;;;;9.93;4.30;;;15.80;99.90;;;;;;5060073;28;20076;-50
2021/04/30 02:26:00;;;;;;;8.15;4.03;;;15.80;99.90;;;;;;5095225;28;20059;-50
2021/04/30 02:28:26;;;;;;;6.03;4.05;;;15.90;99.90;;;;;;5095269;28;20460;-51
2021/04/30 02:30:53;;;;;;;6.38;3.63;;;16.00;99.90;;;;;;5092625;28;20123;-50
2021/04/30 02:33:19;;;;;;;6.68;3.05;;;16.10;99.90;;;;;;5095023;28;20024;-50
2021/04/30 02:35:48;;;;;;;6.35;3.33;;;16.00;99.90;;;;;;5092915;28;20127;-50
2021/04/30 02:38:18;;;;;;;7.57;3.75;;;16.10;99.90;;;;;;5095095;28;20020;-51
2021/04/30 02:40:46;;;;;;;11.70;3.17;;;16.10;99.90;;;;;;5094529;28;20024;-51
2021/04/30 02:43:16;;;;;;;7.50;3.50;;;16.00;99.90;;;;;;5095021;28;20024;-50
2021/04/30 02:45:43;;;;;;;7.68;3.17;;;16.00;99.90;;;;;;5094179;28;20048;-50
2021/04/30 02:48:13;;;;;;;5.78;4.07;;;15.90;99.90;;;;;;5094627;28;20123;-50
2021/04/30 02:50:40;;;;;;;8.18;4.00;;;15.90;99.90;;;;;;5094537;28;20040;-51
2021/04/30 02:53:06;;;;;;;8.90;3.70;;;15.80;99.90;;;;;;5094356;28;20525;-50
2021/04/30 02:55:32;;;;;;;6.10;3.53;;;15.90;99.90;;;;;;5094798;28;20024;-50
2021/04/30 02:58:02;;;;;;;6.70;4.00;;;15.80;99.90;;;;;;5092284;28;20034;-50
2021/04/30 03:00:29;;;;;;;7.32;4.30;;;15.70;99.90;;;;;;5110491;28;20031;-50
2021/04/30 03:02:55;;;;;;;9.07;4.60;;;15.80;99.90;;;;;;5114776;28;20353;-50
2021/04/30 03:05:21;;;;;;;8.38;4.10;;;16.00;99.90;;;;;;5114714;28;20023;-50
2021/04/30 03:07:47;;;;;;;8.85;4.15;;;16.10;99.90;;;;;;5114250;28;20554;-50
2021/04/30 03:10:15;;;;;;;6.65;4.05;;;16.20;99.90;;;;;;5114561;28;20028;-50
2021/04/30 03:12:41;;;;;;;9.00;5.18;;;16.20;99.90;;;;;;5114332;28;20136;-49
2021/04/30 03:15:08;;;;;;;8.43;4.22;;;16.10;99.90;;;;;;5114158;28;20462;-50
2021/04/30 03:17:34;;;;;;;7.93;4.05;;;16.30;99.90;;;;;;5112423;28;20039;-50
2021/04/30 03:19:59;;;;;;;8.30;4.15;;;16.10;99.90;;;;;;5088610;28;20024;-50
2021/04/30 03:22:25;;;;;;;7.85;3.92;;;16.00;99.90;;;;;;5087847;28;20028;-51
2021/04/30 03:24:51;;;;;;;8.88;4.63;;;16.00;99.90;;;;;;5058174;28;20406;-51
2021/04/30 03:27:17;;;;;;;6.30;4.10;;;15.90;99.90;;;;;;5093846;28;20521;-51
2021/04/30 03:29:43;;;;;;;8.88;4.60;;;;;;;;;;5094320;28;20020;-50
2021/04/30 03:32:09;;;;;;;9.98;4.40;;;15.40;99.90;;;;;;5093664;28;20031;-51
2021/04/30 03:34:35;;;;;;;5.38;3.67;;;15.30;99.90;;;;;;5093723;28;20024;-50
2021/04/30 03:37:02;;;;;;;6.55;3.45;;;15.30;99.90;;;;;;5108550;28;20032;-50
2021/04/30 03:39:28;;;;;;;7.60;3.55;;;15.30;99.90;;;;;;5094168;28;20024;-50
2021/04/30 03:41:54;;;;;;;5.85;3.10;;;15.40;99.90;;;;;;5093847;28;20107;-50
2021/04/30 03:44:20;;;;;;;5.68;4.05;;;15.30;99.90;;;;;;5093543;28;20020;-51
2021/04/30 03:46:46;;;;;;;6.40;3.75;;;15.40;99.90;;;;;;5110401;28;20047;-50
2021/04/30 03:49:12;;;;;;;7.68;3.78;;;15.50;99.90;;;;;;5063153;28;20060;-50
2021/04/30 03:51:38;;;;;;;6.00;3.17;;;15.40;99.90;;;;;;5085705;28;20463;-50
2021/04/30 03:54:04;;;;;;;6.40;2.85;;;15.30;99.90;;;;;;5073188;28;20052;-52
2021/04/30 03:56:29;;;;;;;7.80;2.97;;;15.20;99.90;;;;;;5112273;28;20028;-50
2021/04/30 03:58:55;;;;;;;7.47;3.33;;;15.20;99.90;;;;;;5113689;28;20032;-51
2021/04/30 04:01:21;;;;;;;8.68;3.65;;;15.10;99.90;;;;;;5118492;28;20032;-50
2021/04/30 04:03:47;;;;;;;6.78;2.78;;;15.20;99.90;;;;;;5118010;28;20027;-50
2021/04/30 04:06:12;;;;;;;5.53;3.40;;;15.20;99.90;;;;;;5117859;28;20077;-50
2021/04/30 04:08:38;;;;;;;6.28;2.50;;;15.30;99.90;;;;;;5115874;28;20040;-51
2021/04/30 04:11:04;;;;;;;7.57;3.50;;;15.30;99.90;;;;;;5117828;28;20047;-50
2021/04/30 04:13:30;;;;;;;8.70;3.63;;;15.40;99.90;;;;;;5132979;27;20452;-51
2021/04/30 04:15:59;;;;;;;6.60;3.90;;;15.50;99.90;;;;;;5117853;28;20032;-51
2021/04/30 04:18:25;;;;;;;8.30;4.45;;;15.50;99.90;;;;;;5117765;28;20077;-51
2021/04/30 04:20:51;;;;;;;6.85;3.08;;;15.50;99.90;;;;;;5117622;28;20455;-50
2021/04/30 04:23:17;;;;;;;6.10;2.55;;;15.60;99.90;;;;;;5132829;27;20045;-51
2021/04/30 04:25:43;;;;;;;7.78;3.03;;;15.60;99.90;;;;;;5117715;28;20111;-51
2021/04/30 04:28:09;;;;;;;4.47;2.70;;;15.50;99.90;;;;;;5117320;28;20082;-51
2021/04/30 04:30:35;;;;;;;7.97;2.80;;;15.50;99.90;;;;;;5075953;28;20225;-53
2021/04/30 04:33:02;;;;;;;7.72;2.80;;;15.40;99.90;;;;;;5094933;28;20063;-51
2021/04/30 04:35:28;;;;;;;10.82;3.72;;;15.40;99.90;;;;;;5101269;28;20520;-50
2021/04/30 04:37:54;;;;;;;5.28;2.58;;;15.30;99.90;;;;;;5097064;28;20467;-50
2021/04/30 04:40:20;;;;;;;6.22;2.65;;;15.40;99.90;;;;;;5076579;28;20031;-50
2021/04/30 04:42:46;;;;;;;6.55;2.80;;;15.30;99.90;;;;;;5076729;28;20627;-50
2021/04/30 04:45:14;;;;;;;8.30;3.60;;;15.50;99.90;;;;;;5091695;28;20041;-50
2021/04/30 04:47:41;;;;;;;6.70;3.33;;;15.60;99.90;;;;;;5076505;28;20486;-50
2021/04/30 04:50:08;;;;;;;5.38;2.78;;;15.70;99.90;;;;;;5084450;28;20075;-51
2021/04/30 04:52:34;;;;;;;4.53;2.88;;;15.90;99.90;;;;;;5092103;28;20085;-50
2021/04/30 04:54:59;;;;;;;7.13;3.10;;;15.80;99.90;;;;;;5097013;28;20024;-51
2021/04/30 04:57:25;;;;;;;5.20;3.65;;;15.80;99.90;;;;;;5102341;28;20039;-52
2021/04/30 04:59:51;;;;;;;5.35;3.58;;;15.80;99.90;;;;;;5081063;28;20032;-50
2021/04/30 05:02:17;;;;;;;9.48;5.30;;;16.00;99.90;;;;;;5092194;28;20497;-50
2021/04/30 05:04:43;;;;;;;10.32;4.15;;;;;;;;;;5064088;28;20043;-50
2021/04/30 05:07:09;;;;;;;5.82;3.38;;;16.10;99.90;;;;;;5105979;28;20130;-50
2021/04/30 05:09:34;;;;;;;7.32;3.60;;;16.00;99.90;;;;;;5097273;28;20502;-50
2021/04/30 05:12:00;;;;;;;4.65;3.10;;;16.20;99.90;;;;;;5094214;28;20047;-51
2021/04/30 05:14:26;;;;;;;8.63;3.80;;;16.30;99.90;;;;;;5110190;28;20052;-51
2021/04/30 05:16:52;;;;;;;8.00;3.38;;;16.40;99.90;;;;;;5080636;28;20032;-50
2021/04/30 05:19:17;;;;;;;7.75;4.25;;;16.50;99.90;;;;;;5114436;28;20061;-50
2021/04/30 05:21:46;;;;;;;7.80;4.05;;;16.60;99.90;;;;;;5098926;28;20581;-50
2021/04/30 05:24:13;;;;;;;8.95;4.25;;;16.60;99.90;;;;;;5094518;28;20046;-51
2021/04/30 05:26:39;;;;;;;13.73;4.07;;;16.60;99.90;;;;;;5093741;28;20040;-52
2021/04/30 05:29:05;;;;;;;7.35;4.13;;;16.70;99.90;;;;;;5093944;28;20044;-53
2021/04/30 05:31:35;;;;;;;7.90;3.70;;;16.50;99.90;;;;;;5107479;28;20032;-54
2021/04/30 05:34:02;;;;;;;6.65;3.50;;;16.50;99.90;;;;;;5107303;28;20481;-51
2021/04/30 05:36:28;;;;;;;7.20;3.03;;;16.70;99.90;;;;;;5102709;28;20062;-49
2021/04/30 05:38:53;;;;;;;5.75;3.45;;;16.70;99.90;;;;;;5056604;28;20036;-55
2021/04/30 05:41:19;;;;;;;5.13;3.13;;;16.80;99.90;;;;;;5075302;28;20059;-52
2021/04/30 05:43:46;;;;;;;10.15;3.88;;;;;;;;;;5075541;28;20078;-52
2021/04/30 05:46:12;;;;;;;8.23;3.55;;;;;;;;;;5075666;28;20025;-54
2021/04/30 05:48:38;;;;;;;8.35;2.88;;;17.20;99.90;;;;;;5075376;28;20037;-53
2021/04/30 05:51:04;;;;;;;5.75;2.65;;;17.40;99.90;;;;;;5073368;28;20036;-54
2021/04/30 05:53:30;;;;;;;6.43;2.70;;;17.60;99.90;;;;;;5039817;28;20032;-55
2021/04/30 05:55:56;;;;;;;6.20;2.65;;;;;;;;;;5075586;28;20025;-55
2021/04/30 05:58:22;;;;;;;7.43;3.38;;;17.90;99.90;;;;;;5075376;28;20029;-51
2021/04/30 06:00:47;;;;;;;4.85;2.38;;;18.10;99.90;;;;;;5073282;28;20516;-55
2021/04/30 06:03:13;;;;;;;6.57;2.72;;;18.10;99.90;;;;;;5099098;28;20058;-53
2021/04/30 06:05:39;;;;;;;5.95;2.83;;;18.40;99.90;;;;;;5097135;28;20031;-51
2021/04/30 06:08:05;;;;;;;5.32;2.65;;;18.40;99.90;;;;;;5093573;28;20047;-53
2021/04/30 06:10:31;;;;;;;7.00;2.70;;;;;;;;;;5115926;28;20063;-56
2021/04/30 06:13:06;;;;;;;5.75;2.80;;;18.60;99.90;;;;;;5115447;28;20113;-56
2021/04/30 06:15:32;;;;;;;7.70;3.80;;;18.60;99.90;;;;;;5115812;28;20059;-54
2021/04/30 06:17:58;;;;;;;9.95;4.07;;;;;;;;;;5105916;27;20403;-54
2021/04/30 06:20:24;;;;;;;7.07;3.10;;;18.80;99.90;;;;;;5089193;28;20353;-55
2021/04/30 06:22:50;;;;;;;9.43;3.72;;;19.00;99.90;;;;;;5094654;28;20069;-54
2021/04/30 06:25:16;;;;;;;7.00;4.40;;;19.10;99.90;;;;;;5095027;28;20024;-54
2021/04/30 06:27:42;;;;;;;7.57;3.40;;;19.20;99.90;;;;;;5092544;28;20028;-56
2021/04/30 06:30:08;;;;;;;9.23;3.53;;;19.10;99.90;;;;;;5096411;28;20040;-53
2021/04/30 06:32:34;;;;;;;6.10;3.63;;;19.20;99.90;;;;;;5091352;28;20038;-52
2021/04/30 06:35:00;;;;;;;6.13;4.13;;;19.30;99.90;;;;;;5094742;28;20028;-54
2021/04/30 06:37:26;;;;;;;5.22;3.00;;;19.40;99.90;;;;;;5094748;28;20027;-56
2021/04/30 06:39:53;;;;;;;7.38;3.15;;;19.60;99.90;;;;;;5110886;28;20031;-54
2021/04/30 06:42:20;;;;;;;6.32;2.85;;;19.80;99.90;;;;;;5106657;28;20035;-59
2021/04/30 06:44:46;;;;;;;6.30;2.90;;;19.80;99.90;;;;;;5109917;28;20138;-59
2021/04/30 06:47:12;;;;;;;6.32;3.88;;;20.20;99.90;;;;;;5094834;28;20137;-60
2021/04/30 06:49:38;;;;;;;5.78;3.15;;;20.40;99.90;;;;;;5094801;28;20040;-58
2021/04/30 06:52:04;;;;;;;10.23;3.13;;;;;;;;;;5088252;28;20062;-53
2021/04/30 06:54:30;;;;;;;5.40;2.58;;;;;;;;;;5095678;28;20028;-52
2021/04/30 06:56:56;;;;;;;7.38;3.25;;;21.20;99.90;;;;;;5094842;28;20093;-52
2021/04/30 06:59:21;;;;;;;7.68;2.72;;;21.40;99.90;;;;;;5120189;27;20085;-52
2021/04/30 07:01:47;;;;;;;5.03;2.25;;;21.60;99.90;;;;;;5114849;28;20028;-52
2021/04/30 07:04:14;;;;;;;6.13;2.30;;;;;;;;;;5096279;28;20368;-53
2021/04/30 07:06:40;;;;;;;4.50;2.20;;;;;;;;;;5099967;28;20103;-52
2021/04/30 07:09:06;;;;;;;5.80;2.55;;;22.10;99.90;;;;;;5089171;28;20049;-52
2021/04/30 07:11:32;;;;;;;4.78;2.20;;;22.30;99.90;;;;;;5073905;28;20034;-53
2021/04/30 07:13:58;;;;;;;4.80;1.90;;;22.40;99.90;;;;;;5073916;28;20056;-52
2021/04/30 07:16:24;;;;;;;3.78;2.20;;;22.60;99.90;;;;;;5089128;28;20090;-53
2021/04/30 07:18:50;;;;;;;4.63;1.70;;;22.60;99.90;;;;;;5054851;28;20053;-51
2021/04/30 07:21:16;;;;;;;4.10;1.67;;;22.70;99.90;;;;;;5074225;28;20032;-51
2021/04/30 07:23:41;;;;;;;5.32;2.20;;;22.50;99.90;;;;;;5073971;28;20025;-51
2021/04/30 07:26:07;;;;;;;5.82;2.10;;;22.50;99.90;;;;;;5073566;28;20035;-53
2021/04/30 07:28:33;;;;;;;5.80;2.10;;;22.80;99.90;;;;;;5070616;28;20045;-53
2021/04/30 07:30:59;;;;;;;3.53;1.60;;;22.90;99.90;;;;;;5072946;28;20028;-54
2021/04/30 07:33:24;;;;;;;4.28;1.88;;;23.10;99.90;;;;;;5072264;28;20109;-52
2021/04/30 07:35:50;;;;;;;2.75;1.70;;;23.40;99.90;;;;;;5072905;28;20025;-52
2021/04/30 07:38:16;;;;;;;4.93;1.88;;;23.30;99.90;;;;;;5087648;28;20033;-52
2021/04/30 07:40:43;;;;;;;3.53;1.88;;;23.40;99.90;;;;;;5072351;28;20074;-53
2021/04/30 07:43:10;;;;;;;9.02;2.40;;;;;;;;;;5072852;28;20032;-52
2021/04/30 07:45:37;;;;;;;3.17;1.98;;;23.90;99.90;;;;;;5072736;28;20040;-53
2021/04/30 07:48:04;;;;;;;4.30;2.10;;;23.70;99.90;;;;;;5072310;28;20028;-53
2021/04/30 07:50:30;;;;;;;5.95;2.03;;;23.70;99.90;;;;;;5070470;28;20046;-52
2021/04/30 07:52:55;;;;;;;2.47;1.40;;;23.80;99.90;;;;;;5087569;28;20303;-53
2021/04/30 07:55:21;;;;;;;3.42;1.98;;;23.80;99.90;;;;;;5072773;28;20036;-51
2021/04/30 07:57:47;;;;;;;4.78;1.85;;;23.70;99.90;;;;;;5072546;28;20028;-51
2021/04/30 08:00:14;;;;;;;2.90;1.50;;;23.80;99.90;;;;;;5072973;28;20031;-53
2021/04/30 08:02:40;;;;;;;4.85;1.95;;;23.90;99.90;;;;;;5072037;28;20032;-51
2021/04/30 08:05:06;;;;;;;4.38;1.70;;;24.10;99.90;;;;;;5072604;28;20056;-52
2021/04/30 08:07:32;;;;;;;4.63;1.90;;;24.20;99.90;;;;;;5070241;28;20037;-52
2021/04/30 08:09:58;;;;;;;8.25;2.63;;;24.40;99.90;;;;;;5072327;28;20023;-52
2021/04/30 08:12:24;;;;;;;2.72;1.92;;;24.40;99.90;;;;;;5072451;28;20448;-51
2021/04/30 08:14:50;;;;;;;4.78;2.40;;;24.70;99.90;;;;;;5072867;28;20497;-53
2021/04/30 08:17:15;;;;;;;6.20;2.40;;;24.40;99.90;;;;;;5072235;28;20415;-53
2021/04/30 08:19:42;;;;;;;3.90;2.30;;;24.60;99.90;;;;;;5072297;28;20379;-52
2021/04/30 08:22:08;;;;;;;4.93;2.10;;;24.80;99.90;;;;;;5086998;28;20377;-51
2021/04/30 08:24:34;;;;;;;5.72;2.17;;;24.40;99.90;;;;;;5072424;28;20025;-54
2021/04/30 08:27:00;;;;;;;4.75;1.95;;;24.60;99.90;;;;;;5072358;28;20498;-53
2021/04/30 08:29:26;;;;;;;2.72;1.50;;;24.60;99.90;;;;;;5072399;28;20028;-53
2021/04/30 08:31:52;;;;;;;4.72;2.10;;;24.90;99.90;;;;;;5087024;28;20033;-51
2021/04/30 08:34:17;;;;;;;4.10;1.75;;;25.00;99.90;;;;;;5071834;28;20028;-51
2021/04/30 08:36:43;;;;;;;4.57;1.67;;;25.00;99.90;;;;;;5072599;28;20028;-51
2021/04/30 08:39:10;;;;;;;4.35;1.60;;;25.20;99.90;;;;;;5072199;28;20028;-53
2021/04/30 08:41:37;;;;;;;3.78;1.48;;;;;;;;;;5071612;28;20039;-52
2021/04/30 08:44:05;;;;;;;2.22;1.67;;;25.30;99.90;;;;;;5072822;28;20028;-55
2021/04/30 08:46:31;;;;;;;5.57;1.67;;;25.20;99.90;;;;;;5075940;28;20021;-51
2021/04/30 08:49:05;;;;;;;3.53;1.33;;;25.20;99.90;;;;;;5075568;28;20045;-50
2021/04/30 08:51:32;;;;;;;4.15;1.60;;;25.30;99.90;;;;;;5090603;28;20051;-51
2021/04/30 08:53:58;;;;;;;6.32;1.85;;;25.40;99.90;;;;;;5090687;28;20388;-51
2021/04/30 08:56:23;;;;;;;3.25;1.48;;;25.30;99.90;;;;;;5075349;28;20036;-52
2021/04/30 08:58:50;;;;;;;2.65;1.63;;;25.30;99.90;;;;;;5073564;28;20037;-52
2021/04/30 09:01:16;;;;;;;4.03;1.77;;;25.50;99.70;;;;;;5090445;28;20043;-53
2021/04/30 09:03:42;;;;;;;4.65;1.55;;;25.50;99.50;;;;;;5075401;28;20028;-54
2021/04/30 09:06:08;;;;;;;3.55;1.58;;;;;;;;;;5076068;28;20048;-51
2021/04/30 09:08:48;;;;;;;6.07;1.70;;;25.80;99.20;;;;;;5075383;28;20139;-54
2021/04/30 09:11:31;;;;;;;9.05;4.03;;;26.00;99.90;;;;;;5075323;28;20364;-53
2021/04/30 09:14:26;;;;;;;5.47;2.70;;;26.10;99.60;;;;;;5075231;28;20044;-52
2021/04/30 09:17:14;;;;;;;4.93;1.85;;;26.70;99.90;;;;;;5075072;28;20051;-52
2021/04/30 09:19:46;;;;;;;5.45;1.85;;;;;;;;;;5075351;28;20032;-53
2021/04/30 09:22:17;;;;;;;5.07;1.63;;;27.00;97.20;;;;;;5075146;28;20039;-52
2021/04/30 09:24:48;;;;;;;5.15;2.35;;;26.70;96.80;;;;;;5075059;28;20024;-53
2021/04/30 09:27:31;;;;;;;4.15;2.20;;;26.60;96.00;;;;;;5075164;28;20119;-51
2021/04/30 09:30:36;;;;;;;3.88;1.55;;;26.80;97.00;;;;;;5074952;28;20040;-52
2021/04/30 09:33:04;;;;;;;5.97;3.05;;;26.80;96.50;;;;;;5074387;28;20434;-53
2021/04/30 09:35:30;;;;;;;4.68;1.60;;;26.70;96.80;;;;;;5073293;28;20514;-51
2021/04/30 09:37:57;;;;;;;3.08;1.63;;;26.80;97.50;;;;;;5074007;28;20035;-54
2021/04/30 09:40:31;;;;;;;4.60;1.80;;;26.90;96.70;;;;;;5073986;28;20655;-54
2021/04/30 09:43:07;;;;;;;4.30;1.77;;;27.00;96.00;;;;;;5074031;28;20127;-51
2021/04/30 09:45:34;;;;;;;4.47;1.60;;;27.20;95.80;;;;;;5074026;28;20044;-54
2021/04/30 09:48:03;;;;;;;5.85;1.83;;;26.90;94.70;;;;;;5073089;28;20454;-53
2021/04/30 09:50:30;;;;;;;6.85;1.83;;;27.20;95.20;;;;;;5071676;28;20047;-51
2021/04/30 09:52:56;;;;;;;4.35;1.98;;;27.00;93.30;;;;;;5073809;28;20028;-53
2021/04/30 09:55:36;;;;;;;3.72;1.80;;;26.90;93.70;;;;;;5072839;28;20468;-53
2021/04/30 09:58:11;;;;;;;4.13;1.58;;;27.10;94.30;;;;;;5073493;28;20029;-53
2021/04/30 10:00:36;;;;;;;4.07;1.50;;;27.30;94.00;;;;;;5073172;28;20016;-54
2021/04/30 10:03:12;;;;;;;4.43;1.52;;;27.50;93.40;;;;;;5073393;28;20020;-53
2021/04/30 10:05:59;;;;;;;7.70;2.15;;;27.70;92.40;;;;;;5073637;28;20021;-53
2021/04/30 10:08:25;;;;;;;5.05;1.80;;;;;;;;;;5088006;28;20044;-54
2021/04/30 10:10:51;;;;;;;12.57;3.17;;;27.90;91.60;;;;;;5073534;28;20036;-51
2021/04/30 10:13:17;;;;;;;4.10;2.05;;;28.00;92.10;;;;;;5072877;28;20086;-52
2021/04/30 10:15:42;;;;;;;5.43;1.92;;;27.50;91.30;;;;;;5088291;28;20115;-53
2021/04/30 10:18:08;;;;;;;4.70;1.50;;;27.30;91.30;;;;;;5088249;28;20048;-52
2021/04/30 10:20:34;;;;;;;5.93;1.50;;;27.60;91.70;;;;;;5071424;28;20405;-53
2021/04/30 10:23:06;;;;;;;6.15;2.25;;;27.30;90.50;;;;;;5071246;28;20625;-52
2021/04/30 10:25:32;;;;;;;4.80;1.77;;;27.50;91.10;;;;;;5073603;28;20060;-51
2021/04/30 10:28:01;;;;;;;5.50;1.90;;;27.60;92.20;;;;;;5073138;28;20071;-52
2021/04/30 10:30:38;;;;;;;4.93;1.88;;;27.50;92.00;;;;;;5073314;28;20020;-50
2021/04/30 10:33:25;;;;;;;5.32;2.13;;;27.60;91.90;;;;;;5073325;28;20111;-52
2021/04/30 10:36:20;;;;;;;5.80;1.65;;;27.50;91.90;;;;;;5076499;28;20039;-53
2021/04/30 10:38:49;;;;;;;6.15;1.85;;;27.70;90.80;;;;;;5093678;28;20364;-51
2021/04/30 10:41:29;;;;;;;4.50;1.95;;;27.50;91.70;;;;;;5093693;28;20097;-53
2021/04/30 10:44:15;;;;;;;6.57;2.25;;;27.30;92.60;;;;;;5108251;28;20130;-52
2021/04/30 10:46:45;;;;;;;4.57;2.00;;;27.30;91.30;;;;;;5093360;28;20028;-53
2021/04/30 10:49:20;;;;;;;7.75;2.40;;;27.50;92.10;;;;;;5093699;28;20107;-53
2021/04/30 10:52:16;;;;;;;4.88;1.65;;;27.80;92.10;;;;;;5093647;28;20074;-53
2021/04/30 10:54:43;;;;;;;4.53;1.90;;;27.80;92.10;;;;;;5093208;28;20043;-51
2021/04/30 10:57:12;;;;;;;4.13;1.60;;;27.90;92.00;;;;;;5093260;28;20028;-51
2021/04/30 10:59:40;;;;;;;4.60;1.60;;;28.10;92.00;;;;;;5093229;28;20471;-53
2021/04/30 11:02:35;;;;;;;4.63;1.73;;;28.40;91.50;;;;;;5093250;28;20093;-54
2021/04/30 11:05:10;;;;;;;7.15;2.20;;;28.20;92.00;;;;;;5093050;28;20028;-51
2021/04/30 11:07:53;;;;;;;6.28;2.85;;;27.70;90.60;;;;;;5092530;28;20040;-53
2021/04/30 11:10:22;;;;;;;7.18;2.65;;;27.80;90.60;;;;;;5073397;28;20511;-52
2021/04/30 11:13:04;;;;;;;7.07;2.70;;;28.30;90.60;;;;;;5072564;28;20385;-52
2021/04/30 11:15:31;;;;;;;;;;;28.70;91.10;;;;;;5073041;28;20028;-54
2021/04/30 11:18:01;;;;;;;3.92;1.50;;;28.30;90.60;;;;;;5072525;28;19911;-51
2021/04/30 11:20:32;;;;;;;5.50;1.58;;;27.80;89.10;;;;;;5072666;28;20429;-52
2021/04/30 11:23:17;;;;;;;3.65;1.40;;;28.20;91.00;;;;;;5072313;28;20031;-53
2021/04/30 11:25:57;;;;;;;5.28;1.70;;;28.40;90.50;;;;;;5072525;28;20024;-51
2021/04/30 11:28:35;;;;;;;3.35;1.60;;;28.40;90.90;;;;;;5072565;28;20028;-54
2021/04/30 11:31:00;;;;;;;6.18;1.52;;;28.60;91.30;;;;;;5072327;28;20443;-51
2021/04/30 11:33:26;;;;;;;4.28;1.85;;;;;;;;;;5072346;28;20048;-54
2021/04/30 11:35:53;;;;;;;5.55;1.83;;;29.00;91.20;;;;;;5072293;28;20035;-53
2021/04/30 11:38:19;;;;;;;3.00;1.45;;;29.00;91.10;;;;;;5072318;28;20559;-52
2021/04/30 11:40:57;;;;;;;5.18;1.90;;;28.70;90.80;;;;;;5072389;28;20092;-51
2021/04/30 11:43:23;;;;;;;5.88;2.53;;;28.90;90.40;;;;;;5072450;28;20036;-52
2021/04/30 11:45:52;;;;;;;5.35;3.20;;;29.20;91.40;;;;;;5072073;28;20025;-51
2021/04/30 11:48:29;;;;;;;4.05;1.70;;;29.70;91.00;;;;;;5072125;28;20086;-53
2021/04/30 11:51:06;;;;;;;5.50;2.42;;;29.40;88.80;;;;;;5071797;28;20107;-51
2021/04/30 11:53:34;;;;;;;4.32;2.20;;;29.40;91.00;;;;;;5069997;28;20036;-53
2021/04/30 11:56:02;;;;;;;4.68;1.70;;;29.50;91.10;;;;;;5072353;28;20060;-52
2021/04/30 11:58:39;;;;;;;5.03;1.75;;;29.30;89.30;;;;;;5071956;28;20028;-51
2021/04/30 12:01:06;;;;;;;6.30;1.63;;;29.30;90.50;;;;;;5072278;28;20024;-51
2021/04/30 12:03:52;;;;;;;4.40;1.92;;;29.20;91.00;;;;;;5072091;28;20020;-54
2021/04/30 12:06:28;;;;;;;4.97;1.80;;;28.80;89.40;;;;;;5072563;28;20028;-52
2021/04/30 12:08:57;;;;;;;4.20;1.90;;;29.00;88.50;;;;;;5072216;28;20031;-54
2021/04/30 12:11:35;;;;;;;5.30;1.60;;;29.10;89.60;;;;;;5071918;28;20033;-55
2021/04/30 12:14:06;;;;;;;5.90;1.90;;;29.50;89.90;;;;;;5072327;28;20052;-53
2021/04/30 12:16:32;;;;;;;5.20;2.10;;;29.50;88.00;;;;;;5071382;28;20033;-55
2021/04/30 12:18:59;;;;;;;6.55;1.65;;;29.90;87.90;;;;;;5073766;28;20178;-53
2021/04/30 12:21:25;;;;;;;7.35;1.90;;;29.70;87.30;;;;;;5076808;28;20021;-53
2021/04/30 12:23:52;;;;;;;3.95;1.50;;;29.30;86.00;;;;;;5092261;28;20036;-54
2021/04/30 12:26:32;;;;;;;2.92;1.58;;;29.40;85.60;;;;;;5077423;28;20033;-51
2021/04/30 12:28:58;;;;;;;5.30;2.10;;;28.70;85.70;;;;;;5077174;28;20032;-52
2021/04/30 12:31:25;;;;;;;3.95;1.50;;;28.40;87.00;;;;;;5077317;28;20031;-52
2021/04/30 12:33:52;;;;;;;5.90;2.10;;;28.40;87.30;;;;;;5076947;28;20032;-54
2021/04/30 12:36:25;;;;;;;4.97;1.77;;;28.50;89.00;;;;;;5077366;28;20029;-54
2021/04/30 12:38:55;;;;;;;6.40;1.40;;;28.60;86.40;;;;;;5076805;28;20021;-54
2021/04/30 12:41:27;;;;;;;6.15;2.10;;;28.80;87.60;;;;;;5076884;28;20024;-52
2021/04/30 12:43:57;;;;;;;;;;;29.10;88.10;;;;;;5075006;28;20102;-55
2021/04/30 12:46:27;;;;;;;4.38;1.90;;;29.40;86.70;;;;;;5074721;28;20421;-52
2021/04/30 12:48:55;;;;;;;3.38;1.45;;;29.60;85.70;;;;;;5071997;28;20539;-51
2021/04/30 12:51:22;;;;;;;6.97;1.70;;;29.60;84.80;;;;;;5074458;28;20094;-52
2021/04/30 12:53:48;;;;;;;4.35;1.92;;;29.60;86.10;;;;;;5074719;28;20532;-55
2021/04/30 12:56:27;;;;;;;5.25;1.75;;;;;;;;;;5074861;28;20060;-52